sensor_id;sensor_type;location;lat;lon;timestamp;pressure;altitude;pressure_sealevel;temperature;humidity
49393;BME280;35268;42.642;23.308;2023-08-01T00:00:06;93654.28;;;19.72;64.26
49393;BME280;35268;42.642;23.308;2023-08-01T00:02:33;93653.84;;;19.70;64.46
49393;BME280;35268;42.642;23.308;2023-08-01T00:04:59;93652.72;;;19.71;64.28
49393;BME280;35268;42.642;23.308;2023-08-01T00:07:26;93655.38;;;19.68;64.53
49393;BME280;35268;42.642;23.308;2023-08-01T00:09:52;93658.44;;;19.66;64.94
49393;BME280;35268;42.642;23.308;2023-08-01T00:12:17;93653.06;;;19.70;64.67
49393;BME280;35268;42.642;23.308;2023-08-01T00:14:43;93659.28;;;19.70;64.38
49393;BME280;35268;42.642;23.308;2023-08-01T00:17:08;93651.53;;;19.69;64.43
49393;BME280;35268;42.642;23.308;2023-08-01T00:19:33;93646.88;;;19.69;64.25
49393;BME280;35268;42.642;23.308;2023-08-01T00:21:59;93643.03;;;19.70;64.30
49393;BME280;35268;42.642;23.308;2023-08-01T00:24:24;93640.63;;;19.58;64.27
49393;BME280;35268;42.642;23.308;2023-08-01T00:26:50;93632.09;;;19.52;64.69
49393;BME280;35268;42.642;23.308;2023-08-01T00:29:16;93639.78;;;19.47;65.02
49393;BME280;35268;42.642;23.308;2023-08-01T00:31:41;93640.50;;;19.43;64.72
49393;BME280;35268;42.642;23.308;2023-08-01T00:34:07;93646.69;;;19.40;64.99
49393;BME280;35268;42.642;23.308;2023-08-01T00:36:32;93648.22;;;19.38;65.01
49393;BME280;35268;42.642;23.308;2023-08-01T00:38:58;93643.91;;;19.33;65.58
49393;BME280;35268;42.642;23.308;2023-08-01T00:41:23;93660.91;;;19.34;65.65
49393;BME280;35268;42.642;23.308;2023-08-01T00:43:49;93650.03;;;19.27;65.49
49393;BME280;35268;42.642;23.308;2023-08-01T00:46:14;93652.00;;;19.30;65.73
49393;BME280;35268;42.642;23.308;2023-08-01T00:48:40;93647.72;;;19.29;65.43
49393;BME280;35268;42.642;23.308;2023-08-01T00:51:06;93643.91;;;19.33;65.67
49393;BME280;35268;42.642;23.308;2023-08-01T00:53:33;93644.31;;;19.35;65.01
49393;BME280;35268;42.642;23.308;2023-08-01T00:55:59;93645.09;;;19.36;65.27
49393;BME280;35268;42.642;23.308;2023-08-01T00:58:25;93643.13;;;19.33;64.78
49393;BME280;35268;42.642;23.308;2023-08-01T01:00:50;93628.03;;;19.28;64.64
49393;BME280;35268;42.642;23.308;2023-08-01T01:03:16;93638.84;;;19.28;65.19
49393;BME280;35268;42.642;23.308;2023-08-01T01:06:03;93630.34;;;19.26;64.81
49393;BME280;35268;42.642;23.308;2023-08-01T01:08:31;93633.09;;;19.30;65.05
49393;BME280;35268;42.642;23.308;2023-08-01T01:10:56;93634.22;;;19.29;64.75
49393;BME280;35268;42.642;23.308;2023-08-01T01:13:22;93636.53;;;19.27;64.46
49393;BME280;35268;42.642;23.308;2023-08-01T01:15:47;93630.72;;;19.24;64.71
49393;BME280;35268;42.642;23.308;2023-08-01T01:18:13;93623.03;;;19.30;64.62
49393;BME280;35268;42.642;23.308;2023-08-01T01:20:38;93615.66;;;19.27;64.37
49393;BME280;35268;42.642;23.308;2023-08-01T01:23:05;93624.19;;;19.26;65.09
49393;BME280;35268;42.642;23.308;2023-08-01T01:25:32;93624.19;;;19.29;64.92
49393;BME280;35268;42.642;23.308;2023-08-01T01:27:59;93615.75;;;19.34;65.19
49393;BME280;35268;42.642;23.308;2023-08-01T01:30:24;93612.69;;;19.39;65.05
49393;BME280;35268;42.642;23.308;2023-08-01T01:32:52;93615.41;;;19.43;64.63
49393;BME280;35268;42.642;23.308;2023-08-01T01:35:18;93613.88;;;19.45;63.80
49393;BME280;35268;42.642;23.308;2023-08-01T01:37:43;93615.03;;;19.44;63.78
49393;BME280;35268;42.642;23.308;2023-08-01T01:40:09;93610.41;;;19.45;63.89
49393;BME280;35268;42.642;23.308;2023-08-01T01:42:34;93614.28;;;19.44;64.14
49393;BME280;35268;42.642;23.308;2023-08-01T01:45:00;93607.34;;;19.47;63.99
49393;BME280;35268;42.642;23.308;2023-08-01T01:47:25;93607.75;;;19.49;63.50
49393;BME280;35268;42.642;23.308;2023-08-01T01:49:51;93606.56;;;19.50;63.41
49393;BME280;35268;42.642;23.308;2023-08-01T01:52:16;93601.97;;;19.50;64.26
49393;BME280;35268;42.642;23.308;2023-08-01T01:54:42;93611.25;;;19.53;65.12
49393;BME280;35268;42.642;23.308;2023-08-01T01:57:07;93613.94;;;19.53;63.37
49393;BME280;35268;42.642;23.308;2023-08-01T01:59:32;93616.63;;;19.49;63.04
49393;BME280;35268;42.642;23.308;2023-08-01T02:01:58;93617.38;;;19.46;62.98
49393;BME280;35268;42.642;23.308;2023-08-01T02:04:25;93629.69;;;19.43;63.52
49393;BME280;35268;42.642;23.308;2023-08-01T02:06:51;93621.59;;;19.43;63.24
49393;BME280;35268;42.642;23.308;2023-08-01T02:09:18;93620.47;;;19.48;62.97
49393;BME280;35268;42.642;23.308;2023-08-01T02:11:44;93615.84;;;19.49;63.09
49393;BME280;35268;42.642;23.308;2023-08-01T02:14:09;93618.91;;;19.47;63.17
49393;BME280;35268;42.642;23.308;2023-08-01T02:16:35;93619.69;;;19.44;63.60
49393;BME280;35268;42.642;23.308;2023-08-01T02:19:00;93621.19;;;19.41;63.48
49393;BME280;35268;42.642;23.308;2023-08-01T02:21:25;93626.47;;;19.27;63.31
49393;BME280;35268;42.642;23.308;2023-08-01T02:23:51;93621.06;;;19.27;64.03
49393;BME280;35268;42.642;23.308;2023-08-01T02:26:16;93603.72;;;19.28;63.70
49393;BME280;35268;42.642;23.308;2023-08-01T02:28:42;93619.13;;;19.24;63.56
49393;BME280;35268;42.642;23.308;2023-08-01T02:31:07;93619.13;;;19.24;63.36
49393;BME280;35268;42.642;23.308;2023-08-01T02:33:33;93616.41;;;19.20;63.22
49393;BME280;35268;42.642;23.308;2023-08-01T02:35:58;93614.06;;;19.19;63.64
49393;BME280;35268;42.642;23.308;2023-08-01T02:38:23;93615.22;;;19.18;63.03
49393;BME280;35268;42.642;23.308;2023-08-01T02:40:49;93616.38;;;19.17;62.87
49393;BME280;35268;42.642;23.308;2023-08-01T02:43:14;93622.53;;;19.14;62.47
49393;BME280;35268;42.642;23.308;2023-08-01T02:45:41;93615.94;;;19.11;62.27
49393;BME280;35268;42.642;23.308;2023-08-01T02:48:07;93610.16;;;19.09;61.95
49393;BME280;35268;42.642;23.308;2023-08-01T02:50:32;93613.22;;;19.08;61.75
49393;BME280;35268;42.642;23.308;2023-08-01T02:52:58;93613.53;;;19.02;61.38
49393;BME280;35268;42.642;23.308;2023-08-01T02:55:23;93622.00;;;18.97;61.30
49393;BME280;35268;42.642;23.308;2023-08-01T02:57:49;93618.06;;;18.91;61.62
49393;BME280;35268;42.642;23.308;2023-08-01T03:00:14;93618.75;;;18.84;61.04
49393;BME280;35268;42.642;23.308;2023-08-01T03:02:42;93619.13;;;18.79;60.90
49393;BME280;35268;42.642;23.308;2023-08-01T03:05:08;93624.38;;;18.69;60.80
49393;BME280;35268;42.642;23.308;2023-08-01T03:07:34;93616.13;;;18.54;61.78
49393;BME280;35268;42.642;23.308;2023-08-01T03:10:00;93613.22;;;18.36;63.33
49393;BME280;35268;42.642;23.308;2023-08-01T03:12:25;93616.94;;;18.24;63.88
49393;BME280;35268;42.642;23.308;2023-08-01T03:14:50;93609.91;;;18.16;63.88
49393;BME280;35268;42.642;23.308;2023-08-01T03:17:16;93612.56;;;18.13;64.40
49393;BME280;35268;42.642;23.308;2023-08-01T03:19:42;93616.72;;;18.07;64.95
49393;BME280;35268;42.642;23.308;2023-08-01T03:22:08;93612.84;;;18.04;65.23
49393;BME280;35268;42.642;23.308;2023-08-01T03:24:34;93615.13;;;18.02;65.52
49393;BME280;35268;42.642;23.308;2023-08-01T03:27:00;93616.25;;;18.01;65.34
49393;BME280;35268;42.642;23.308;2023-08-01T03:29:25;93617.41;;;18.00;65.59
49393;BME280;35268;42.642;23.308;2023-08-01T03:31:51;93622.81;;;18.00;65.17
49393;BME280;35268;42.642;23.308;2023-08-01T03:34:16;93622.03;;;17.99;64.64
49393;BME280;35268;42.642;23.308;2023-08-01T03:36:41;93623.53;;;17.97;64.85
49393;BME280;35268;42.642;23.308;2023-08-01T03:39:07;93619.69;;;17.98;64.98
49393;BME280;35268;42.642;23.308;2023-08-01T03:41:35;93614.78;;;18.03;64.60
49393;BME280;35268;42.642;23.308;2023-08-01T03:44:02;93622.94;;;18.11;63.96
49393;BME280;35268;42.642;23.308;2023-08-01T03:46:27;93627.63;;;18.17;63.71
49393;BME280;35268;42.642;23.308;2023-08-01T03:48:53;93625.34;;;18.19;64.29
49393;BME280;35268;42.642;23.308;2023-08-01T03:51:18;93632.72;;;18.22;65.02
49393;BME280;35268;42.642;23.308;2023-08-01T03:53:44;93616.66;;;18.33;64.07
49393;BME280;35268;42.642;23.308;2023-08-01T03:56:10;93627.91;;;18.39;63.83
49393;BME280;35268;42.642;23.308;2023-08-01T03:58:36;93625.72;;;18.48;63.28
49393;BME280;35268;42.642;23.308;2023-08-01T04:01:01;93630.75;;;18.53;63.02
49393;BME280;35268;42.642;23.308;2023-08-01T04:03:27;93632.75;;;18.60;63.26
49393;BME280;35268;42.642;23.308;2023-08-01T04:05:52;93634.03;;;18.70;63.75
49393;BME280;35268;42.642;23.308;2023-08-01T04:08:19;93638.00;;;18.79;63.77
49393;BME280;35268;42.642;23.308;2023-08-01T04:10:46;93637.25;;;18.82;63.55
49393;BME280;35268;42.642;23.308;2023-08-01T04:13:22;93636.56;;;18.89;62.37
49393;BME280;35268;42.642;23.308;2023-08-01T04:15:47;93641.53;;;18.83;63.48
49393;BME280;35268;42.642;23.308;2023-08-01T04:18:13;93641.47;;;18.80;64.80
49393;BME280;35268;42.642;23.308;2023-08-01T04:20:38;93639.56;;;18.80;65.43
49393;BME280;35268;42.642;23.308;2023-08-01T04:23:04;93646.94;;;18.83;66.39
49393;BME280;35268;42.642;23.308;2023-08-01T04:25:29;93640.38;;;18.84;67.37
49393;BME280;35268;42.642;23.308;2023-08-01T04:27:54;93640.41;;;18.88;67.88
49393;BME280;35268;42.642;23.308;2023-08-01T04:30:20;93636.25;;;18.98;68.16
49393;BME280;35268;42.642;23.308;2023-08-01T04:32:45;93640.84;;;18.94;68.08
49393;BME280;35268;42.642;23.308;2023-08-01T04:35:11;93638.88;;;18.91;68.50
49393;BME280;35268;42.642;23.308;2023-08-01T04:37:36;93647.03;;;18.94;68.59
49393;BME280;35268;42.642;23.308;2023-08-01T04:40:02;93644.69;;;18.93;69.03
49393;BME280;35268;42.642;23.308;2023-08-01T04:42:28;93638.53;;;18.92;69.28
49393;BME280;35268;42.642;23.308;2023-08-01T04:44:54;93651.69;;;18.97;69.28
49393;BME280;35268;42.642;23.308;2023-08-01T04:47:20;93638.56;;;18.96;69.15
49393;BME280;35268;42.642;23.308;2023-08-01T04:49:46;93644.69;;;18.93;69.63
49393;BME280;35268;42.642;23.308;2023-08-01T04:52:11;93640.19;;;19.04;69.23
49393;BME280;35268;42.642;23.308;2023-08-01T04:54:37;93637.13;;;19.06;69.35
49393;BME280;35268;42.642;23.308;2023-08-01T04:57:03;93645.63;;;19.08;70.46
49393;BME280;35268;42.642;23.308;2023-08-01T04:59:28;93645.25;;;19.09;70.69
49393;BME280;35268;42.642;23.308;2023-08-01T05:01:54;93639.94;;;19.20;68.74
49393;BME280;35268;42.642;23.308;2023-08-01T05:04:19;93635.34;;;19.24;68.13
49393;BME280;35268;42.642;23.308;2023-08-01T05:06:45;93641.97;;;19.30;68.05
49393;BME280;35268;42.642;23.308;2023-08-01T05:09:10;93639.84;;;19.09;68.10
49393;BME280;35268;42.642;23.308;2023-08-01T05:11:35;93638.78;;;19.17;67.83
49393;BME280;35268;42.642;23.308;2023-08-01T05:14:01;93641.97;;;19.30;67.41
49393;BME280;35268;42.642;23.308;2023-08-01T05:16:26;93641.59;;;19.35;66.91
49393;BME280;35268;42.642;23.308;2023-08-01T05:18:52;93642.47;;;19.47;66.69
49393;BME280;35268;42.642;23.308;2023-08-01T05:21:17;93641.00;;;19.60;65.66
49393;BME280;35268;42.642;23.308;2023-08-01T05:23:43;93638.38;;;19.67;64.75
49393;BME280;35268;42.642;23.308;2023-08-01T05:26:08;93627.63;;;19.71;64.92
49393;BME280;35268;42.642;23.308;2023-08-01T05:28:33;93642.31;;;19.73;64.50
49393;BME280;35268;42.642;23.308;2023-08-01T05:30:59;93644.28;;;19.80;64.10
49393;BME280;35268;42.642;23.308;2023-08-01T05:33:24;93637.72;;;19.81;63.47
49393;BME280;35268;42.642;23.308;2023-08-01T05:35:50;93645.03;;;19.77;63.07
49393;BME280;35268;42.642;23.308;2023-08-01T05:38:15;93642.38;;;19.80;63.16
49393;BME280;35268;42.642;23.308;2023-08-01T05:40:41;93637.75;;;19.88;62.48
49393;BME280;35268;42.642;23.308;2023-08-01T05:43:06;93645.16;;;19.95;62.04
49393;BME280;35268;42.642;23.308;2023-08-01T05:45:34;93645.16;;;19.98;61.98
49393;BME280;35268;42.642;23.308;2023-08-01T05:48:00;93640.88;;;19.94;60.98
49393;BME280;35268;42.642;23.308;2023-08-01T05:50:25;93646.66;;;19.92;60.92
49393;BME280;35268;42.642;23.308;2023-08-01T05:52:50;93640.50;;;19.92;61.89
49393;BME280;35268;42.642;23.308;2023-08-01T05:55:16;93636.66;;;19.93;61.50
49393;BME280;35268;42.642;23.308;2023-08-01T05:57:41;93631.72;;;20.09;61.54
49393;BME280;35268;42.642;23.308;2023-08-01T06:00:07;93629.41;;;20.11;59.94
49393;BME280;35268;42.642;23.308;2023-08-01T06:02:33;93641.47;;;20.28;58.57
49393;BME280;35268;42.642;23.308;2023-08-01T06:04:58;93642.59;;;20.23;58.38
49393;BME280;35268;42.642;23.308;2023-08-01T06:07:23;93647.25;;;20.27;59.19
49393;BME280;35268;42.642;23.308;2023-08-01T06:09:50;93633.25;;;20.10;59.08
49393;BME280;35268;42.642;23.308;2023-08-01T06:12:18;93632.56;;;20.28;57.98
49393;BME280;35268;42.642;23.308;2023-08-01T06:14:43;93634.94;;;20.40;57.90
49393;BME280;35268;42.642;23.308;2023-08-01T06:17:09;93630.31;;;20.44;58.09
49393;BME280;35268;42.642;23.308;2023-08-01T06:19:34;93635.75;;;20.51;57.56
49393;BME280;35268;42.642;23.308;2023-08-01T06:21:59;93633.09;;;20.58;57.12
49393;BME280;35268;42.642;23.308;2023-08-01T06:24:25;93638.91;;;20.60;56.40
49393;BME280;35268;42.642;23.308;2023-08-01T06:26:50;93634.31;;;20.68;57.00
49393;BME280;35268;42.642;23.308;2023-08-01T06:29:16;93636.63;;;20.77;55.42
49393;BME280;35268;42.642;23.308;2023-08-01T06:31:41;93625.03;;;20.80;54.96
49393;BME280;35268;42.642;23.308;2023-08-01T06:34:07;93634.34;;;20.93;55.14
49393;BME280;35268;42.642;23.308;2023-08-01T06:36:32;93627.44;;;21.07;53.88
49393;BME280;35268;42.642;23.308;2023-08-01T06:38:57;93619.31;;;21.21;52.54
49393;BME280;35268;42.642;23.308;2023-08-01T06:41:23;93615.78;;;20.99;52.82
49393;BME280;35268;42.642;23.308;2023-08-01T06:43:48;93609.59;;;20.98;52.75
49393;BME280;35268;42.642;23.308;2023-08-01T06:46:14;93619.28;;;21.10;52.99
49393;BME280;35268;42.642;23.308;2023-08-01T06:48:39;93621.22;;;21.24;52.17
49393;BME280;35268;42.642;23.308;2023-08-01T06:51:04;93621.63;;;21.26;52.64
49393;BME280;35268;42.642;23.308;2023-08-01T06:53:30;93621.63;;;21.37;53.05
49393;BME280;35268;42.642;23.308;2023-08-01T06:55:55;93621.63;;;21.37;51.98
49393;BME280;35268;42.642;23.308;2023-08-01T06:58:21;93622.44;;;21.48;52.57
49393;BME280;35268;42.642;23.308;2023-08-01T07:00:46;93624.34;;;21.55;52.04
49393;BME280;35268;42.642;23.308;2023-08-01T07:03:11;93623.19;;;21.63;51.00
49393;BME280;35268;42.642;23.308;2023-08-01T07:05:37;93624.75;;;21.64;50.89
49393;BME280;35268;42.642;23.308;2023-08-01T07:08:03;93625.13;;;21.66;50.66
49393;BME280;35268;42.642;23.308;2023-08-01T07:10:29;93616.63;;;21.64;50.84
49393;BME280;35268;42.642;23.308;2023-08-01T07:12:55;93621.25;;;21.56;50.39
49393;BME280;35268;42.642;23.308;2023-08-01T07:15:20;93628.25;;;21.54;51.10
49393;BME280;35268;42.642;23.308;2023-08-01T07:17:46;93615.06;;;21.49;51.90
49393;BME280;35268;42.642;23.308;2023-08-01T07:20:11;93606.53;;;21.36;51.71
49393;BME280;35268;42.642;23.308;2023-08-01T07:22:37;93611.94;;;21.39;51.92
49393;BME280;35268;42.642;23.308;2023-08-01T07:25:03;93618.16;;;21.51;51.76
49393;BME280;35268;42.642;23.308;2023-08-01T07:27:28;93611.16;;;21.71;52.04
49393;BME280;35268;42.642;23.308;2023-08-01T07:29:53;93606.13;;;21.80;51.73
49393;BME280;35268;42.642;23.308;2023-08-01T07:32:19;93604.16;;;21.99;51.01
49393;BME280;35268;42.642;23.308;2023-08-01T07:34:44;93601.41;;;22.13;50.25
49393;BME280;35268;42.642;23.308;2023-08-01T07:37:10;93601.78;;;22.15;50.23
49393;BME280;35268;42.642;23.308;2023-08-01T07:39:35;93598.72;;;21.99;50.40
49393;BME280;35268;42.642;23.308;2023-08-01T07:42:01;93604.91;;;21.99;50.65
49393;BME280;35268;42.642;23.308;2023-08-01T07:44:26;93603.72;;;22.15;50.61
49393;BME280;35268;42.642;23.308;2023-08-01T07:46:51;93604.84;;;22.35;49.56
49393;BME280;35268;42.642;23.308;2023-08-01T07:49:17;93609.47;;;22.42;50.26
49393;BME280;35268;42.642;23.308;2023-08-01T07:51:43;93617.22;;;22.40;49.48
49393;BME280;35268;42.642;23.308;2023-08-01T07:54:10;93607.13;;;22.44;48.96
49393;BME280;35268;42.642;23.308;2023-08-01T07:56:36;93604.78;;;22.53;49.11
49393;BME280;35268;42.642;23.308;2023-08-01T07:59:01;93605.53;;;22.57;49.88
49393;BME280;35268;42.642;23.308;2023-08-01T08:01:27;93601.19;;;22.71;48.92
49393;BME280;35268;42.642;23.308;2023-08-01T08:03:52;93598.81;;;22.76;48.94
49393;BME280;35268;42.642;23.308;2023-08-01T08:06:18;93603.88;;;22.74;49.12
49393;BME280;35268;42.642;23.308;2023-08-01T09:49:11;93508.72;;;25.89;43.46
49393;BME280;35268;42.642;23.308;2023-08-01T09:51:49;93511.97;;;26.04;41.88
49393;BME280;35268;42.642;23.308;2023-08-01T09:54:16;93511.69;;;25.98;41.49
49393;BME280;35268;42.642;23.308;2023-08-01T09:56:47;93500.81;;;25.95;41.71
49393;BME280;35268;42.642;23.308;2023-08-01T09:59:23;93494.19;;;25.96;41.99
49393;BME280;35268;42.642;23.308;2023-08-01T10:01:50;93488.44;;;26.10;42.19
49393;BME280;35268;42.642;23.308;2023-08-01T10:04:18;93488.38;;;26.14;41.55
49393;BME280;35268;42.642;23.308;2023-08-01T10:06:47;93481.41;;;26.29;40.65
49393;BME280;35268;42.642;23.308;2023-08-01T10:09:15;93482.44;;;26.35;41.50
49393;BME280;35268;42.642;23.308;2023-08-01T10:11:41;93474.69;;;26.34;41.53
49393;BME280;35268;42.642;23.308;2023-08-01T10:14:08;93470.78;;;26.51;40.94
49393;BME280;35268;42.642;23.308;2023-08-01T10:16:34;93463.59;;;26.61;40.72
49393;BME280;35268;42.642;23.308;2023-08-01T10:19:02;93472.75;;;26.71;41.58
49393;BME280;35268;42.642;23.308;2023-08-01T10:21:28;93475.91;;;26.86;39.93
49393;BME280;35268;42.642;23.308;2023-08-01T10:23:55;93471.38;;;26.79;38.74
49393;BME280;35268;42.642;23.308;2023-08-01T10:26:23;93469.22;;;26.70;39.69
49393;BME280;35268;42.642;23.308;2023-08-01T10:28:51;93466.66;;;26.63;39.93
49393;BME280;35268;42.642;23.308;2023-08-01T10:31:18;93459.22;;;26.64;40.55
49393;BME280;35268;42.642;23.308;2023-08-01T10:33:45;93451.56;;;26.75;39.17
49393;BME280;35268;42.642;23.308;2023-08-01T10:36:19;93453.34;;;26.81;40.46
49393;BME280;35268;42.642;23.308;2023-08-01T10:38:50;93457.03;;;26.91;39.45
49393;BME280;35268;42.642;23.308;2023-08-01T10:41:20;93454.28;;;27.08;38.30
49393;BME280;35268;42.642;23.308;2023-08-01T10:43:45;93447.78;;;27.18;36.57
49393;BME280;35268;42.642;23.308;2023-08-01T10:46:10;93444.44;;;27.27;36.36
49393;BME280;35268;42.642;23.308;2023-08-01T10:48:50;93430.34;;;27.28;36.80
49393;BME280;35268;42.642;23.308;2023-08-01T10:51:16;93436.84;;;27.18;36.72
49393;BME280;35268;42.642;23.308;2023-08-01T10:53:42;93435.16;;;27.24;36.70
49393;BME280;35268;42.642;23.308;2023-08-01T10:56:07;93431.97;;;27.09;37.11
49393;BME280;35268;42.642;23.308;2023-08-01T10:58:34;93423.84;;;27.06;38.21
49393;BME280;35268;42.642;23.308;2023-08-01T11:01:00;93427.78;;;27.05;39.23
49393;BME280;35268;42.642;23.308;2023-08-01T11:03:38;93418.19;;;27.13;39.72
49393;BME280;35268;42.642;23.308;2023-08-01T11:06:04;93416.03;;;27.37;39.42
49393;BME280;35268;42.642;23.308;2023-08-01T11:08:39;93414.25;;;27.59;38.11
49393;BME280;35268;42.642;23.308;2023-08-01T11:11:11;93412.03;;;27.84;38.71
49393;BME280;35268;42.642;23.308;2023-08-01T11:13:36;93406.94;;;27.98;37.24
49393;BME280;35268;42.642;23.308;2023-08-01T11:16:03;93411.66;;;28.11;36.49
49393;BME280;35268;42.642;23.308;2023-08-01T11:18:30;93400.50;;;28.18;37.77
49393;BME280;35268;42.642;23.308;2023-08-01T11:20:56;93397.78;;;28.31;36.81
49393;BME280;35268;42.642;23.308;2023-08-01T11:23:28;93405.81;;;28.51;36.80
49393;BME280;35268;42.642;23.308;2023-08-01T11:25:53;93399.56;;;28.63;35.44
49393;BME280;35268;42.642;23.308;2023-08-01T11:28:20;93392.75;;;28.80;34.58
49393;BME280;35268;42.642;23.308;2023-08-01T11:30:46;93389.00;;;28.87;36.90
49393;BME280;35268;42.642;23.308;2023-08-01T11:33:22;93394.75;;;29.02;35.64
49393;BME280;35268;42.642;23.308;2023-08-01T11:35:55;93387.75;;;29.14;35.22
49393;BME280;35268;42.642;23.308;2023-08-01T11:38:29;93378.94;;;29.06;33.31
49393;BME280;35268;42.642;23.308;2023-08-01T11:40:56;93381.38;;;29.17;33.74
49393;BME280;35268;42.642;23.308;2023-08-01T11:43:22;93378.91;;;29.32;34.31
49393;BME280;35268;42.642;23.308;2023-08-01T11:45:48;93377.38;;;29.53;34.32
49393;BME280;35268;42.642;23.308;2023-08-01T11:48:14;93365.88;;;29.67;34.44
49393;BME280;35268;42.642;23.308;2023-08-01T11:50:39;93372.88;;;29.81;32.58
49393;BME280;35268;42.642;23.308;2023-08-01T11:53:05;93362.06;;;29.87;31.69
49393;BME280;35268;42.642;23.308;2023-08-01T11:55:34;93367.47;;;29.99;34.49
49393;BME280;35268;42.642;23.308;2023-08-01T11:58:00;93358.78;;;30.01;31.23
49393;BME280;35268;42.642;23.308;2023-08-01T12:00:28;93352.25;;;30.08;29.99
49393;BME280;35268;42.642;23.308;2023-08-01T12:03:10;93354.78;;;30.24;31.04
49393;BME280;35268;42.642;23.308;2023-08-01T12:05:41;93346.28;;;30.31;30.73
49393;BME280;35268;42.642;23.308;2023-08-01T12:08:11;93343.72;;;30.46;30.65
49393;BME280;35268;42.642;23.308;2023-08-01T12:10:45;93338.69;;;30.45;29.81
49393;BME280;35268;42.642;23.308;2023-08-01T12:13:23;93338.53;;;30.48;28.61
49393;BME280;35268;42.642;23.308;2023-08-01T12:15:54;93334.94;;;30.70;26.95
49393;BME280;35268;42.642;23.308;2023-08-01T12:18:28;93342.88;;;30.77;26.39
49393;BME280;35268;42.642;23.308;2023-08-01T12:20:54;93343.81;;;30.74;25.55
49393;BME280;35268;42.642;23.308;2023-08-01T12:23:19;93336.47;;;30.71;27.03
49393;BME280;35268;42.642;23.308;2023-08-01T12:25:48;93332.38;;;30.85;26.76
49393;BME280;35268;42.642;23.308;2023-08-01T12:28:14;93323.09;;;31.01;26.84
49393;BME280;35268;42.642;23.308;2023-08-01T12:30:41;93327.66;;;31.22;26.95
49393;BME280;35268;42.642;23.308;2023-08-01T12:33:07;93320.78;;;31.54;26.55
49393;BME280;35268;42.642;23.308;2023-08-01T12:35:33;93318.91;;;31.79;25.70
49393;BME280;35268;42.642;23.308;2023-08-01T12:37:58;93315.34;;;32.06;26.23
49393;BME280;35268;42.642;23.308;2023-08-01T12:40:24;93314.91;;;32.32;25.55
49393;BME280;35268;42.642;23.308;2023-08-01T12:42:50;93314.06;;;32.59;24.75
49393;BME280;35268;42.642;23.308;2023-08-01T12:45:15;93300.97;;;32.69;23.57
49393;BME280;35268;42.642;23.308;2023-08-01T12:47:40;93307.00;;;32.82;24.83
49393;BME280;35268;42.642;23.308;2023-08-01T12:50:06;93308.41;;;33.02;22.28
49393;BME280;35268;42.642;23.308;2023-08-01T12:52:32;93293.94;;;33.07;21.90
49393;BME280;35268;42.642;23.308;2023-08-01T12:54:57;93292.66;;;33.17;21.64
49393;BME280;35268;42.642;23.308;2023-08-01T12:57:23;93291.75;;;33.20;20.68
49393;BME280;35268;42.642;23.308;2023-08-01T12:59:48;93299.91;;;33.14;19.86
49393;BME280;35268;42.642;23.308;2023-08-01T13:02:14;93299.19;;;33.05;19.91
49393;BME280;35268;42.642;23.308;2023-08-01T13:04:39;93285.19;;;32.93;20.00
49393;BME280;35268;42.642;23.308;2023-08-01T13:07:05;93274.00;;;33.12;20.08
49393;BME280;35268;42.642;23.308;2023-08-01T13:09:31;93276.50;;;33.10;20.99
49393;BME280;35268;42.642;23.308;2023-08-01T13:11:56;93286.28;;;32.87;20.85
49393;BME280;35268;42.642;23.308;2023-08-01T13:14:24;93283.53;;;32.63;20.80
49393;BME280;35268;42.642;23.308;2023-08-01T13:16:49;93280.28;;;32.88;21.46
49393;BME280;35268;42.642;23.308;2023-08-01T13:19:15;93277.38;;;33.31;20.62
49393;BME280;35268;42.642;23.308;2023-08-01T13:21:40;93265.13;;;33.76;20.10
49393;BME280;35268;42.642;23.308;2023-08-01T13:24:06;93268.81;;;34.18;19.70
49393;BME280;35268;42.642;23.308;2023-08-01T13:26:31;93275.16;;;34.39;19.45
49393;BME280;35268;42.642;23.308;2023-08-01T13:28:57;93260.47;;;34.68;18.58
49393;BME280;35268;42.642;23.308;2023-08-01T13:31:23;93266.41;;;35.02;19.16
49393;BME280;35268;42.642;23.308;2023-08-01T13:33:49;93264.00;;;35.56;18.62
49393;BME280;35268;42.642;23.308;2023-08-01T13:36:14;93265.72;;;36.12;17.14
49393;BME280;35268;42.642;23.308;2023-08-01T13:38:40;93256.63;;;36.43;16.14
49393;BME280;35268;42.642;23.308;2023-08-01T13:41:05;93253.38;;;36.93;16.31
49393;BME280;35268;42.642;23.308;2023-08-01T13:43:31;93261.34;;;37.34;15.37
49393;BME280;35268;42.642;23.308;2023-08-01T13:45:56;93254.88;;;37.88;14.66
49393;BME280;35268;42.642;23.308;2023-08-01T13:48:22;93258.44;;;38.17;14.94
49393;BME280;35268;42.642;23.308;2023-08-01T13:50:47;93246.19;;;38.71;14.13
49393;BME280;35268;42.642;23.308;2023-08-01T13:53:13;93249.84;;;39.13;13.87
49393;BME280;35268;42.642;23.308;2023-08-01T13:55:39;93243.31;;;39.05;13.98
49393;BME280;35268;42.642;23.308;2023-08-01T13:58:05;93243.56;;;39.01;14.48
49393;BME280;35268;42.642;23.308;2023-08-01T14:00:31;93245.38;;;38.99;14.22
49393;BME280;35268;42.642;23.308;2023-08-01T14:02:57;93243.47;;;39.18;14.29
49393;BME280;35268;42.642;23.308;2023-08-01T14:05:26;93244.84;;;39.89;13.75
49393;BME280;35268;42.642;23.308;2023-08-01T14:07:52;93232.41;;;40.75;12.95
49393;BME280;35268;42.642;23.308;2023-08-01T14:10:18;93232.84;;;41.23;12.67
49393;BME280;35268;42.642;23.308;2023-08-01T14:12:43;93238.50;;;41.17;12.58
49393;BME280;35268;42.642;23.308;2023-08-01T14:15:09;93226.41;;;41.09;12.88
49393;BME280;35268;42.642;23.308;2023-08-01T14:17:35;93224.97;;;40.83;12.69
49393;BME280;35268;42.642;23.308;2023-08-01T14:20:01;93206.97;;;40.79;13.03
49393;BME280;35268;42.642;23.308;2023-08-01T14:22:26;93202.69;;;41.16;13.37
49393;BME280;35268;42.642;23.308;2023-08-01T14:24:52;93216.75;;;41.67;13.77